createdAt,value
2019-05-07T00:01:04.514Z,100182.56
2019-05-07T00:03:32.836Z,100180.81
2019-05-07T00:06:02.787Z,100188.72
2019-05-07T00:08:32.209Z,100184.50
2019-05-07T00:11:02.299Z,100179.37
2019-05-07T00:13:29.963Z,100186.09
2019-05-07T00:15:58.292Z,100188.28
2019-05-07T00:18:26.679Z,100187.31
2019-05-07T00:20:54.530Z,100191.79
2019-05-07T00:23:23.294Z,100194.42
2019-05-07T00:25:52.953Z,100194.87
2019-05-07T00:28:23.000Z,100188.71
2019-05-07T00:30:52.135Z,100194.59
2019-05-07T00:33:22.558Z,100195.30
2019-05-07T00:35:57.088Z,100200.22
2019-05-07T00:38:26.927Z,100197.39
2019-05-07T00:41:14.203Z,100201.70
2019-05-07T00:43:44.024Z,100200.47
2019-05-07T00:46:17.970Z,100199.56
2019-05-07T00:48:46.058Z,100206.70
2019-05-07T00:51:30.496Z,100200.38
2019-05-07T00:53:59.851Z,100208.02
2019-05-07T00:56:27.814Z,100208.38
2019-05-07T00:58:55.780Z,100210.19
2019-05-07T01:01:23.611Z,100214.27
2019-05-07T01:03:53.368Z,100213.91
2019-05-07T01:06:22.724Z,100217.04
2019-05-07T01:08:52.529Z,100205.30
2019-05-07T01:11:22.633Z,100216.43
2019-05-07T01:13:52.051Z,100213.20
2019-05-07T01:16:22.189Z,100219.44
2019-05-07T01:18:50.166Z,100211.44
2019-05-07T01:21:32.249Z,100218.28
2019-05-07T01:24:00.030Z,100216.52
2019-05-07T01:26:27.815Z,100216.86
2019-05-07T01:28:59.136Z,100222.39
2019-05-07T01:31:30.136Z,100222.19
2019-05-07T01:34:05.280Z,100226.84
2019-05-07T01:36:33.068Z,100224.13
2019-05-07T01:39:02.652Z,100223.66
2019-05-07T01:41:32.560Z,100232.38
2019-05-07T01:44:02.064Z,100230.71
2019-05-07T01:46:29.949Z,100232.78
2019-05-07T01:48:57.689Z,100230.41
2019-05-07T01:51:25.557Z,100227.41
2019-05-07T01:53:53.390Z,100224.33
2019-05-07T01:56:22.961Z,100223.11
2019-05-07T01:58:52.790Z,100228.27
2019-05-07T02:01:22.167Z,100222.44
2019-05-07T02:03:58.040Z,100223.66
2019-05-07T02:06:44.286Z,100220.06
2019-05-07T02:09:22.138Z,100221.02
2019-05-07T02:12:09.492Z,100217.18
2019-05-07T02:14:37.235Z,100222.59
2019-05-07T02:17:05.130Z,100216.61
2019-05-07T02:19:33.152Z,100211.95
2019-05-07T02:22:02.806Z,100222.02
2019-05-07T02:24:30.802Z,100218.68
2019-05-07T02:26:58.627Z,100188.70
2019-05-07T02:29:26.350Z,100219.03
2019-05-07T02:31:54.176Z,100221.91
2019-05-07T02:34:23.434Z,100218.57
2019-05-07T02:36:53.946Z,100228.74
2019-05-07T02:39:37.791Z,100225.86
2019-05-07T02:42:05.620Z,100224.33
2019-05-07T02:44:37.843Z,100227.21
2019-05-07T02:47:16.635Z,100225.78
2019-05-07T02:49:53.373Z,100232.11
2019-05-07T02:52:28.656Z,100225.77
2019-05-07T02:55:03.966Z,100230.32
2019-05-07T02:57:33.912Z,100228.18
2019-05-07T03:00:04.522Z,100228.78
2019-05-07T03:02:33.197Z,100230.59
2019-05-07T03:05:04.843Z,100227.98
2019-05-07T03:07:33.463Z,100230.11
2019-05-07T03:10:03.532Z,100220.20
2019-05-07T03:12:33.389Z,100226.17
2019-05-07T03:15:04.132Z,100221.41
2019-05-07T03:17:33.416Z,100228.91
2019-05-07T03:20:03.285Z,100221.62
2019-05-07T03:22:33.811Z,100227.84
2019-05-07T03:25:23.133Z,100227.13
2019-05-07T03:27:53.500Z,100230.47
2019-05-07T03:30:35.416Z,100232.74
2019-05-07T03:33:07.630Z,100227.24
2019-05-07T03:35:39.144Z,100228.44
2019-05-07T03:38:07.047Z,100232.50
2019-05-07T03:40:35.922Z,100229.52
2019-05-07T03:43:06.099Z,100229.27
2019-05-07T03:45:48.650Z,100234.17
2019-05-07T03:48:18.829Z,100235.13
2019-05-07T03:50:46.750Z,100229.77
2019-05-07T03:53:14.687Z,100236.34
2019-05-07T03:55:44.604Z,100233.22
2019-05-07T03:58:14.552Z,100228.07
2019-05-07T04:00:44.296Z,100237.63
2019-05-07T04:03:13.458Z,100232.38
2019-05-07T04:05:43.352Z,100240.52
2019-05-07T04:08:13.130Z,100243.36
2019-05-07T04:10:43.814Z,100243.61
2019-05-07T04:13:13.339Z,100252.45
2019-05-07T04:15:43.817Z,100249.61
2019-05-07T04:18:13.117Z,100253.17
2019-05-07T04:20:43.446Z,100251.37
2019-05-07T04:23:13.469Z,100248.85
2019-05-07T04:25:58.301Z,100254.47
2019-05-07T04:28:35.592Z,100251.49
2019-05-07T04:31:03.772Z,100256.62
2019-05-07T04:33:38.168Z,100256.02
2019-05-07T04:36:14.295Z,100258.86
2019-05-07T04:38:44.048Z,100258.16
2019-05-07T04:41:13.882Z,100258.02
2019-05-07T04:43:43.484Z,100259.44
2019-05-07T04:46:14.367Z,100257.52
2019-05-07T04:48:43.947Z,100263.24
2019-05-07T04:51:14.040Z,100263.24
2019-05-07T04:53:42.904Z,100271.36
2019-05-07T04:56:13.840Z,100272.31
2019-05-07T04:58:43.495Z,100278.16
2019-05-07T05:01:13.967Z,100282.34
2019-05-07T05:03:43.651Z,100280.53
2019-05-07T05:06:13.596Z,100280.63
2019-05-07T05:08:43.564Z,100281.34
2019-05-07T05:11:12.757Z,100278.11
2019-05-07T05:13:44.019Z,100280.34
2019-05-07T05:16:23.751Z,100286.92
2019-05-07T05:18:52.259Z,100273.85
2019-05-07T05:21:37.984Z,100281.75
2019-05-07T05:24:19.516Z,100281.84
2019-05-07T05:26:47.270Z,100285.19
2019-05-07T05:29:17.804Z,100283.12
2019-05-07T05:31:45.881Z,100285.75
2019-05-07T05:34:13.735Z,100282.51
2019-05-07T05:36:42.460Z,100286.20
2019-05-07T05:39:12.943Z,100291.22
2019-05-07T05:41:42.521Z,100287.63
2019-05-07T05:44:24.337Z,100293.25
2019-05-07T05:46:52.560Z,100292.28
2019-05-07T05:49:22.786Z,100300.38
2019-05-07T05:51:57.302Z,100299.00
2019-05-07T05:54:33.414Z,100296.11
2019-05-07T05:57:13.207Z,100297.87
2019-05-07T06:00:14.749Z,100300.88
2019-05-07T06:03:07.648Z,100295.28
2019-05-07T06:06:01.973Z,100303.12
2019-05-07T06:08:43.293Z,100301.27
2019-05-07T06:11:39.239Z,100305.70
2019-05-07T06:14:26.427Z,100300.72
2019-05-07T06:17:16.746Z,100299.45
2019-05-07T06:20:03.055Z,100295.88
2019-05-07T06:22:52.897Z,100297.70
2019-05-07T06:25:24.644Z,100294.77
2019-05-07T06:27:52.597Z,100288.40
2019-05-07T06:30:22.714Z,100292.94
2019-05-07T06:32:52.245Z,100299.31
2019-05-07T06:35:20.294Z,100293.98
2019-05-07T06:37:48.084Z,100297.67
2019-05-07T06:40:34.515Z,100292.94
2019-05-07T06:43:15.297Z,100290.95
2019-05-07T06:45:47.609Z,100290.83
2019-05-07T06:48:15.582Z,100290.12
2019-05-07T06:50:56.136Z,100293.26
2019-05-07T06:53:27.973Z,100293.75
2019-05-07T06:55:56.456Z,100286.11
2019-05-07T06:58:26.775Z,100296.75
2019-05-07T07:01:12.113Z,100297.36
2019-05-07T07:03:58.794Z,100298.91
2019-05-07T07:06:29.602Z,100298.81
2019-05-07T07:09:05.020Z,100299.04
2019-05-07T07:11:52.792Z,100294.16
2019-05-07T07:14:22.589Z,100299.23
2019-05-07T07:16:49.992Z,100293.12
2019-05-07T07:19:17.968Z,100294.52
2019-05-07T07:21:45.793Z,100295.61
2019-05-07T07:24:13.574Z,100298.47
2019-05-07T07:26:42.254Z,100290.77
2019-05-07T07:29:12.732Z,100291.56
2019-05-07T07:31:52.793Z,100292.47
2019-05-07T07:34:22.741Z,100295.98
2019-05-07T07:37:15.817Z,100293.00
2019-05-07T07:39:43.897Z,100299.95
2019-05-07T07:42:12.664Z,100297.87
2019-05-07T07:44:42.563Z,100292.17
2019-05-07T07:47:10.143Z,100297.78
2019-05-07T07:49:38.095Z,100298.46
2019-05-07T07:52:05.963Z,100299.24
2019-05-07T07:54:33.740Z,100293.48
2019-05-07T07:57:33.168Z,100297.11
2019-05-07T08:00:15.272Z,100289.72
2019-05-07T08:02:46.487Z,100289.76
2019-05-07T08:05:14.515Z,100290.38
2019-05-07T08:07:42.691Z,100290.14
2019-05-07T08:10:12.885Z,100287.91
2019-05-07T08:12:42.180Z,100289.30
2019-05-07T08:15:18.126Z,100284.73
2019-05-07T08:17:41.895Z,100286.98
2019-05-07T08:20:12.662Z,100283.67
2019-05-07T08:22:42.323Z,100287.03
2019-05-07T08:25:12.514Z,100292.77
2019-05-07T08:27:41.971Z,100290.14
2019-05-07T08:30:13.975Z,100289.88
2019-05-07T08:33:14.815Z,100277.02
2019-05-07T08:36:07.684Z,100281.18
2019-05-07T08:38:49.097Z,100287.70
2019-05-07T08:41:17.337Z,100285.95
2019-05-07T08:43:45.141Z,100280.80
2019-05-07T08:46:35.057Z,100276.58
2019-05-07T08:49:02.979Z,100273.59
2019-05-07T08:51:32.596Z,100276.14
2019-05-07T08:54:06.445Z,100271.55
2019-05-07T08:56:35.660Z,100274.21
2019-05-07T08:59:04.250Z,100267.73
2019-05-07T09:01:32.645Z,100272.57
2019-05-07T09:04:02.485Z,100267.40
2019-05-07T09:06:45.163Z,100273.06
2019-05-07T09:09:13.114Z,100265.47
2019-05-07T09:11:42.597Z,100269.28
2019-05-07T09:14:12.600Z,100273.59
2019-05-07T09:16:42.641Z,100271.63
2019-05-07T09:19:12.602Z,100263.82
2019-05-07T09:21:42.608Z,100266.14
2019-05-07T09:24:12.163Z,100265.48
2019-05-07T09:26:48.933Z,100267.15
2019-05-07T09:29:28.605Z,100274.78
2019-05-07T09:32:18.406Z,100273.94
2019-05-07T09:34:47.062Z,100265.95
2019-05-07T09:37:18.869Z,100261.48
2019-05-07T09:39:46.797Z,100250.31
2019-05-07T09:42:14.702Z,100259.63
2019-05-07T09:44:42.563Z,100258.48
2019-05-07T09:47:12.778Z,100258.48
2019-05-07T09:49:41.929Z,100261.97
2019-05-07T09:52:12.138Z,100260.30
2019-05-07T09:54:39.576Z,100260.30
2019-05-07T09:57:22.743Z,100258.82
2019-05-07T09:59:37.367Z,100254.50
2019-05-07T10:02:05.403Z,100256.82
2019-05-07T10:04:33.426Z,100269.46
2019-05-07T10:07:02.605Z,100246.16
2019-05-07T10:09:32.862Z,100257.47
2019-05-07T10:12:12.052Z,100257.47
2019-05-07T10:14:41.950Z,100246.95
2019-05-07T10:17:15.720Z,100236.50
2019-05-07T10:19:43.645Z,100255.09
2019-05-07T10:22:12.588Z,100255.09
2019-05-07T10:24:41.932Z,100245.73
2019-05-07T10:27:12.479Z,100245.73
2019-05-07T10:29:40.017Z,100245.76
2019-05-07T10:32:07.835Z,100253.06
2019-05-07T10:34:35.726Z,100248.70
2019-05-07T10:37:03.750Z,100250.87
2019-05-07T10:39:33.895Z,100236.28
2019-05-07T10:42:01.953Z,100236.28
2019-05-07T10:44:35.411Z,100251.48
2019-05-07T10:47:22.289Z,100251.48
2019-05-07T10:50:11.792Z,100244.83
2019-05-07T10:52:39.525Z,100249.51
2019-05-07T10:55:08.135Z,100260.30
2019-05-07T10:57:35.818Z,100265.42
2019-05-07T11:00:04.703Z,100262.58
2019-05-07T11:02:32.631Z,100261.83
2019-05-07T11:05:02.334Z,100257.58
2019-05-07T11:07:30.054Z,100257.58
2019-05-07T11:09:57.872Z,100254.97
2019-05-07T11:12:25.595Z,100254.97
2019-05-07T11:14:53.367Z,100252.50
2019-05-07T11:17:39.271Z,100253.59
2019-05-07T11:20:08.092Z,100253.59
2019-05-07T11:22:35.817Z,100259.66
2019-05-07T11:25:03.846Z,100263.95
2019-05-07T11:27:32.990Z,100257.18
2019-05-07T11:30:02.710Z,100261.92
2019-05-07T11:32:32.134Z,100270.41
2019-05-07T11:35:00.312Z,100273.91
2019-05-07T11:37:28.233Z,100273.91
2019-05-07T11:39:56.008Z,100275.25
2019-05-07T11:42:45.121Z,100263.94
2019-05-07T11:45:19.095Z,100265.45
2019-05-07T11:47:46.898Z,100259.14
2019-05-07T11:50:42.139Z,100257.82
2019-05-07T11:53:10.757Z,100257.14
2019-05-07T11:55:38.646Z,100255.75
2019-05-07T11:58:06.360Z,100253.23
2019-05-07T12:00:51.967Z,100254.34
2019-05-07T12:03:21.974Z,100261.72
2019-05-07T12:05:49.595Z,100263.80
2019-05-07T12:08:17.518Z,100263.80
2019-05-07T12:10:45.299Z,100250.11
2019-05-07T12:13:13.176Z,100250.67
2019-05-07T12:15:42.786Z,100248.89
2019-05-07T12:18:11.878Z,100255.89
2019-05-07T12:20:40.010Z,100247.47
2019-05-07T12:23:07.744Z,100247.47
2019-05-07T12:25:35.575Z,100244.69
2019-05-07T12:28:03.532Z,100245.56
2019-05-07T12:30:53.975Z,100244.67
2019-05-07T12:33:44.061Z,100242.38
2019-05-07T12:36:12.720Z,100240.45
2019-05-07T12:38:41.735Z,100237.73
2019-05-07T12:41:28.028Z,100230.28
2019-05-07T12:43:55.752Z,100225.55
2019-05-07T12:46:23.714Z,100225.55
2019-05-07T12:48:52.369Z,100223.04
2019-05-07T12:51:31.645Z,100224.39
2019-05-07T12:53:56.148Z,100214.31
2019-05-07T12:56:23.930Z,100217.73
2019-05-07T12:58:51.857Z,100226.47
2019-05-07T13:01:36.574Z,100223.42
2019-05-07T13:04:07.233Z,100221.38
2019-05-07T13:06:40.208Z,100222.56
2019-05-07T13:09:08.257Z,100229.36
2019-05-07T13:11:36.009Z,100226.37
2019-05-07T13:14:03.985Z,100229.56
2019-05-07T13:16:32.422Z,100228.28
2019-05-07T13:19:01.925Z,100230.44
2019-05-07T13:21:31.786Z,100226.33
2019-05-07T13:23:59.367Z,100226.33
2019-05-07T13:26:27.326Z,100225.68
2019-05-07T13:28:55.082Z,100222.73
2019-05-07T13:31:27.503Z,100225.80
2019-05-07T13:33:55.925Z,100225.80
2019-05-07T13:36:24.502Z,100232.38
2019-05-07T13:39:14.819Z,100226.92
2019-05-07T13:42:02.127Z,100234.42
2019-05-07T13:44:44.662Z,100233.08
2019-05-07T13:47:30.017Z,100229.44
2019-05-07T13:49:58.432Z,100230.58
2019-05-07T13:52:26.319Z,100229.30
2019-05-07T13:54:54.831Z,100234.45
2019-05-07T13:57:23.184Z,100230.86
2019-05-07T13:59:53.031Z,100233.66
2019-05-07T14:02:22.899Z,100226.02
2019-05-07T14:04:52.653Z,100229.30
2019-05-07T14:07:21.762Z,100225.59
2019-05-07T14:09:52.496Z,100221.76
2019-05-07T14:12:20.008Z,100224.78
2019-05-07T14:14:47.854Z,100222.77
2019-05-07T14:17:15.557Z,100223.25
2019-05-07T14:19:43.309Z,100222.44
2019-05-07T14:22:17.898Z,100217.42
2019-05-07T14:24:42.260Z,100220.61
2019-05-07T14:27:10.155Z,100224.61
2019-05-07T14:29:37.916Z,100216.28
2019-05-07T14:32:21.193Z,100221.47
2019-05-07T14:35:22.566Z,100218.17
2019-05-07T14:38:18.822Z,100220.89
2019-05-07T14:40:46.760Z,100218.92
2019-05-07T14:43:22.014Z,100230.30
2019-05-07T14:45:49.849Z,100222.30
2019-05-07T14:48:17.796Z,100216.81
2019-05-07T14:50:45.791Z,100221.30
2019-05-07T14:53:13.802Z,100223.97
2019-05-07T14:55:41.964Z,100220.97
2019-05-07T14:58:12.240Z,100225.14
2019-05-07T15:00:42.744Z,100227.97
2019-05-07T15:03:12.469Z,100231.80
2019-05-07T15:05:42.253Z,100228.13
2019-05-07T15:08:13.522Z,100230.18
2019-05-07T15:10:41.840Z,100234.34
2019-05-07T15:13:09.980Z,100231.69
2019-05-07T15:15:37.971Z,100225.39
2019-05-07T15:18:15.781Z,100233.06
2019-05-07T15:20:43.107Z,100238.66
2019-05-07T15:23:18.956Z,100241.97
2019-05-07T15:25:47.746Z,100241.97
2019-05-07T15:28:16.246Z,100245.97
2019-05-07T15:30:56.483Z,100249.77
2019-05-07T15:33:24.406Z,100248.96
2019-05-07T15:35:52.383Z,100248.08
2019-05-07T15:38:21.706Z,100248.58
2019-05-07T15:40:51.927Z,100253.92
2019-05-07T15:43:19.985Z,100253.92
2019-05-07T15:45:47.765Z,100252.92
2019-05-07T15:48:15.484Z,100247.05
2019-05-07T15:50:43.381Z,100245.27
2019-05-07T15:53:28.236Z,100246.77
2019-05-07T15:55:56.930Z,100247.12
2019-05-07T15:58:25.160Z,100248.12
2019-05-07T16:00:52.964Z,100244.13
2019-05-07T16:03:26.147Z,100239.14
2019-05-07T16:05:54.308Z,100249.31
2019-05-07T16:08:22.919Z,100249.31
2019-05-07T16:10:52.960Z,100241.67
2019-05-07T16:13:24.779Z,100245.34
2019-05-07T16:15:52.956Z,100246.84
2019-05-07T16:18:25.429Z,100235.88
2019-05-07T16:21:04.949Z,100235.88
2019-05-07T16:23:33.112Z,100240.52
2019-05-07T16:26:02.408Z,100236.53
2019-05-07T16:28:32.432Z,100236.53
2019-05-07T16:31:02.428Z,100241.00
2019-05-07T16:33:31.993Z,100242.52
2019-05-07T16:35:59.593Z,100242.52
2019-05-07T16:38:27.413Z,100249.98
2019-05-07T16:40:55.360Z,100253.83
2019-05-07T16:43:23.554Z,100244.19
2019-05-07T16:45:51.847Z,100248.33
2019-05-07T16:48:19.694Z,100248.33
2019-05-07T16:50:47.488Z,100246.66
2019-05-07T16:53:26.560Z,100247.51
2019-05-07T16:55:45.424Z,100243.52
2019-05-07T16:58:35.786Z,100243.52
2019-05-07T17:01:07.041Z,100240.19
2019-05-07T17:03:42.689Z,100236.20
2019-05-07T17:06:12.394Z,100236.20
2019-05-07T17:08:53.996Z,100234.54
2019-05-07T17:11:22.632Z,100243.34
2019-05-07T17:13:51.915Z,100246.84
2019-05-07T17:16:20.148Z,100243.00
2019-05-07T17:18:47.947Z,100243.00
2019-05-07T17:21:16.469Z,100246.84
2019-05-07T17:23:44.855Z,100249.98
2019-05-07T17:26:12.848Z,100248.51
2019-05-07T17:28:42.549Z,100247.84
2019-05-07T17:31:12.413Z,100247.84
2019-05-07T17:33:42.453Z,100250.98
2019-05-07T17:36:12.130Z,100251.50
2019-05-07T17:38:40.162Z,100249.17
2019-05-07T17:41:13.074Z,100249.17
2019-05-07T17:43:37.718Z,100243.85
2019-05-07T17:46:05.454Z,100252.65
2019-05-07T17:48:33.715Z,100252.65
2019-05-07T17:51:23.852Z,100249.50
2019-05-07T17:53:59.752Z,100255.30
2019-05-07T17:56:22.475Z,100255.30
2019-05-07T17:58:52.226Z,100257.44
2019-05-07T18:01:24.733Z,100257.44
2019-05-07T18:03:52.527Z,100258.61
2019-05-07T18:06:20.544Z,100258.61
2019-05-07T18:08:48.316Z,100256.09
2019-05-07T18:11:21.206Z,100256.09
2019-05-07T18:13:46.543Z,100261.73
2019-05-07T18:16:24.971Z,100261.73
2019-05-07T18:18:53.449Z,100258.58
2019-05-07T18:21:22.045Z,100262.38
2019-05-07T18:23:51.753Z,100267.26
2019-05-07T18:26:28.062Z,100257.64
2019-05-07T18:28:49.451Z,100268.10
2019-05-07T18:31:22.015Z,100268.10
2019-05-07T18:33:55.715Z,100267.70
2019-05-07T18:36:23.582Z,100269.80
2019-05-07T18:38:52.869Z,100269.80
2019-05-07T18:41:22.333Z,100277.20
2019-05-07T18:43:54.382Z,100277.20
2019-05-07T18:46:22.056Z,100277.19
2019-05-07T18:48:51.824Z,100273.01
2019-05-07T18:51:19.772Z,100273.50
2019-05-07T18:53:47.734Z,100277.15
2019-05-07T18:56:15.452Z,100272.14
2019-05-07T18:58:43.275Z,100273.64
2019-05-07T19:01:12.412Z,100275.77
2019-05-07T19:03:41.961Z,100284.70
2019-05-07T19:06:13.456Z,100277.36
2019-05-07T19:08:42.210Z,100286.77
2019-05-07T19:11:12.259Z,100283.58
2019-05-07T19:13:42.040Z,100287.24
2019-05-07T19:16:12.511Z,100283.75
2019-05-07T19:18:40.078Z,100284.04
2019-05-07T19:21:07.937Z,100278.70
2019-05-07T19:23:36.338Z,100280.33
2019-05-07T19:26:04.503Z,100280.33
2019-05-07T19:28:33.012Z,100275.95
2019-05-07T19:31:00.993Z,100275.95
2019-05-07T19:33:28.727Z,100277.95
2019-05-07T19:35:57.016Z,100274.59
2019-05-07T19:38:24.744Z,100274.59
2019-05-07T19:40:52.885Z,100272.57
2019-05-07T19:43:20.862Z,100272.37
2019-05-07T19:45:48.856Z,100273.00
2019-05-07T19:48:16.571Z,100276.27
2019-05-07T19:50:44.860Z,100264.61
2019-05-07T19:53:12.931Z,100266.77
2019-05-07T19:55:58.728Z,100266.77
2019-05-07T19:58:26.580Z,100267.72
2019-05-07T20:00:57.216Z,100267.72
2019-05-07T20:03:36.554Z,100276.81
2019-05-07T20:06:04.741Z,100278.92
2019-05-07T20:08:32.931Z,100278.92
2019-05-07T20:11:15.855Z,100279.84
2019-05-07T20:13:44.894Z,100279.84
2019-05-07T20:16:17.057Z,100273.52
2019-05-07T20:18:45.474Z,100270.01
2019-05-07T20:21:13.868Z,100270.83
2019-05-07T20:23:43.220Z,100269.95
2019-05-07T20:26:12.577Z,100273.91
2019-05-07T20:28:41.757Z,100272.07
2019-05-07T20:31:11.646Z,100269.53
2019-05-07T20:33:39.505Z,100270.38
2019-05-07T20:36:07.392Z,100274.13
2019-05-07T20:38:36.933Z,100275.28
2019-05-07T20:41:06.682Z,100275.28
2019-05-07T20:43:35.562Z,100266.45
2019-05-07T20:46:03.545Z,100266.45
2019-05-07T20:48:32.437Z,100270.91
2019-05-07T20:51:00.759Z,100270.87
2019-05-07T20:53:48.072Z,100266.72
2019-05-07T20:56:17.299Z,100271.14
2019-05-07T20:58:45.730Z,100271.31
2019-05-07T21:01:13.509Z,100273.45
2019-05-07T21:03:42.908Z,100259.48
2019-05-07T21:06:10.916Z,100265.16
2019-05-07T21:08:38.638Z,100270.80
2019-05-07T21:11:06.609Z,100261.18
2019-05-07T21:13:35.054Z,100263.16
2019-05-07T21:16:03.432Z,100273.21
2019-05-07T21:18:32.690Z,100273.21
2019-05-07T21:21:02.118Z,100271.85
2019-05-07T21:23:32.424Z,100274.30
2019-05-07T21:26:01.954Z,100272.59
2019-05-07T21:28:29.661Z,100273.67
2019-05-07T21:30:57.530Z,100279.11
2019-05-07T21:33:25.258Z,100273.77
2019-05-07T21:35:53.038Z,100263.13
2019-05-07T21:38:22.331Z,100266.59
2019-05-07T21:40:50.543Z,100272.19
2019-05-07T21:43:18.327Z,100266.00
2019-05-07T21:45:46.261Z,100273.91
2019-05-07T21:48:13.978Z,100270.23
2019-05-07T21:50:41.858Z,100271.17
2019-05-07T21:53:16.708Z,100272.62
2019-05-07T21:56:03.047Z,100278.34
2019-05-07T21:58:40.822Z,100285.73
2019-05-07T22:01:43.415Z,100274.28
2019-05-07T22:04:12.490Z,100283.63
2019-05-07T22:06:40.012Z,100275.17
2019-05-07T22:09:08.430Z,100271.63
2019-05-07T22:11:36.475Z,100269.77
2019-05-07T22:14:04.517Z,100277.50
2019-05-07T22:16:33.020Z,100275.36
2019-05-07T22:19:02.631Z,100276.08
2019-05-07T22:21:33.893Z,100278.84
2019-05-07T22:24:02.645Z,100281.09
2019-05-07T22:26:32.020Z,100276.38
2019-05-07T22:28:59.664Z,100282.59
2019-05-07T22:31:37.246Z,100282.32
2019-05-07T22:34:33.791Z,100277.77
2019-05-07T22:37:03.284Z,100281.33
2019-05-07T22:39:32.744Z,100276.68
2019-05-07T22:42:03.764Z,100275.42
2019-05-07T22:44:32.247Z,100279.27
2019-05-07T22:47:12.369Z,100275.23
2019-05-07T22:49:41.992Z,100279.11
2019-05-07T22:52:09.729Z,100276.05
2019-05-07T22:54:37.450Z,100275.52
2019-05-07T22:57:14.032Z,100276.78
2019-05-07T22:59:40.587Z,100275.86
2019-05-07T23:02:08.421Z,100273.16
2019-05-07T23:04:36.195Z,100276.23
2019-05-07T23:07:04.045Z,100270.72
2019-05-07T23:09:31.814Z,100268.36
2019-05-07T23:12:01.746Z,100267.59
2019-05-07T23:14:29.215Z,100269.55
2019-05-07T23:16:56.950Z,100266.83
2019-05-07T23:19:24.720Z,100260.44
2019-05-07T23:21:52.451Z,100256.95
2019-05-07T23:24:22.582Z,100258.91
2019-05-07T23:26:53.309Z,100256.95
2019-05-07T23:29:22.557Z,100256.88
2019-05-07T23:31:52.952Z,100250.50
2019-05-07T23:34:21.955Z,100252.92
2019-05-07T23:36:49.640Z,100249.51
2019-05-07T23:39:19.448Z,100252.08
2019-05-07T23:41:57.626Z,100256.16
2019-05-07T23:44:25.469Z,100249.36
2019-05-07T23:46:53.276Z,100254.30
2019-05-07T23:49:23.250Z,100247.81
2019-05-07T23:51:53.054Z,100250.95
2019-05-07T23:54:22.972Z,100246.08
2019-05-07T23:57:02.907Z,100240.59
2019-05-07T23:59:22.177Z,100253.10
